Terminal Aerodrome Forecast
Issued by NWS Chicago, IL

Home | Current Version | Previous Version | Graphics & Text | Print | Product List | Glossary On
Versions: 1 2 3 4 5 6 7 8 9 10 11 12 13 14 15 16 17 18 19 20 21 22 23 24 25 26 27 28 29 30
000
FTUS43 KLOT 232200 AAB
TAFRFD
TAF AMD
KRFD 232200Z 2322/2418 13007KT P6SM OVC100
     FM240100 13008KT P6SM VCSH BKN060 OVC090
      TEMPO 2402/2405 5SM -SHRA SCT040 BKN060
     FM240600 12012KT P6SM SCT060 BKN090
     FM241400 14015G21KT P6SM BKN250
     FM241700 16019G28KT P6SM BKN060=

USA.gov is the U.S. government's official web portal to all federal, state and local government web resources and services.